Terminal Aerodrome Forecast
Issued by NWS

Home | Current Version | Previous Version | Text Only | Print | Product List | Glossary On
Versions: 1 2 3 4 5 6 7 8 9 10 11 12 13 14 15 16 17 18 19 20 21 22 23 24 25 26 27 28 29 30 31 32 33 34 35 36
000
FTUS44 KOUN 231140
TAFPNC
TAF
KPNC 231140Z 2312/2412 16014KT P6SM OVC012
     FM231600 23014KT P6SM OVC015
     FM232000 33024G34KT P6SM BKN025
      TEMPO 2320/2324 5SM -RA BR OVC012
     FM240100 31013KT P6SM SCT030 SCT150=

USA.gov is the U.S. government's official web portal to all federal, state and local government web resources and services.